Waukesha County Airport (UES)


Airport Diagram
Current Weather/Forecast (VFR Conditions)
METAR KUES 201645Z 22010KT 10SM CLR M10/M15 A3013
TAF KUES 201523Z 2015/2112 23009KT P6SM BKN200 FM201700 23011G21KT P6SM BKN200 FM202000 20016G28KT P6SM BKN250 FM210500 26013KT P6SM SCT120

All Charts
General
Chart Name Download
AIRPORT DIAGRAM
TAKEOFF MINIMUMS
ALTERNATE MINIMUMS

Departures
Chart Name Download
ACCRA FIVE (RNAV)
UECKR SIX (RNAV)

Arrivals
Chart Name Download
GOPAC TWO (RNAV)

Approaches
Chart Name Download
ILS OR LOC RWY 10
RNAV (GPS) RWY 10
RNAV (GPS) RWY 28
VOR-A